Time;durP1;ratioP1;P1;durP2;ratioP2;P2;SDS_P1;SDS_P2;PMS_P1;PMS_P2;Temp;Humidity;BMP_temperature;BMP_pressure;BME280_temperature;BME280_humidity;BME280_pressure;Samples;Min_cycle;Max_cycle;Signal;HPM_P1;HPM_P2
2021/03/29 00:00:21;;;;;;;9.75;3.13;;;8.80;89.20;;;;;;4746218;30;20039;-76
2021/03/29 00:02:49;;;;;;;10.50;3.70;;;8.80;89.40;;;;;;4746564;30;20432;-76
2021/03/29 00:05:18;;;;;;;12.98;3.55;;;8.80;89.30;;;;;;4731255;30;20047;-76
2021/03/29 00:07:47;;;;;;;8.18;2.28;;;8.70;89.30;;;;;;4760438;30;20060;-76
2021/03/29 00:10:15;;;;;;;9.13;2.55;;;8.70;89.30;;;;;;4761987;30;20043;-76
2021/03/29 00:12:45;;;;;;;12.98;3.95;;;8.70;89.30;;;;;;4758673;30;20040;-76
2021/03/29 00:15:19;;;;;;;8.13;2.47;;;8.70;89.40;;;;;;4762085;30;20046;-76
2021/03/29 00:17:46;;;;;;;10.35;2.72;;;8.70;89.50;;;;;;4776756;29;20044;-75
2021/03/29 00:20:19;;;;;;;7.65;2.38;;;8.70;89.50;;;;;;4762202;30;20055;-77
2021/03/29 00:22:46;;;;;;;9.48;2.67;;;8.60;89.40;;;;;;4763018;30;20048;-78
2021/03/29 00:25:14;;;;;;;8.02;2.60;;;8.60;89.50;;;;;;4763818;30;20050;-78
2021/03/29 00:27:41;;;;;;;10.80;2.25;;;8.60;89.60;;;;;;4762571;30;20042;-78
2021/03/29 00:30:16;;;;;;;9.68;2.50;;;8.60;89.50;;;;;;4763231;30;20054;-78
2021/03/29 00:32:44;;;;;;;7.15;2.50;;;8.60;89.60;;;;;;4762610;30;20063;-78
2021/03/29 00:35:14;;;;;;;8.25;2.33;;;8.60;89.60;;;;;;4762265;30;20059;-78
2021/03/29 00:37:44;;;;;;;5.28;1.73;;;8.50;89.50;;;;;;4762289;30;20043;-78
2021/03/29 00:40:12;;;;;;;7.63;2.42;;;8.50;89.50;;;;;;4748282;30;20036;-78
2021/03/29 00:42:40;;;;;;;12.73;2.78;;;8.50;89.60;;;;;;4777027;30;20044;-78
2021/03/29 00:45:17;;;;;;;7.40;2.40;;;8.50;89.70;;;;;;4763127;30;20039;-78
2021/03/29 00:47:44;;;;;;;6.93;2.05;;;8.50;89.70;;;;;;4762997;30;20048;-78
2021/03/29 00:50:17;;;;;;;7.60;2.22;;;8.50;89.70;;;;;;4762612;30;21331;-78
2021/03/29 00:52:44;;;;;;;6.15;1.75;;;8.50;89.80;;;;;;4761774;30;20066;-78
2021/03/29 00:55:12;;;;;;;9.65;2.00;;;8.50;89.80;;;;;;4752891;30;20060;-78
2021/03/29 00:57:39;;;;;;;10.60;2.75;;;8.40;89.80;;;;;;4762714;30;20538;-78
2021/03/29 01:00:19;;;;;;;8.98;2.05;;;8.40;89.90;;;;;;4762587;30;20435;-79
2021/03/29 01:02:46;;;;;;;11.18;2.72;;;8.50;90.00;;;;;;4762713;30;20043;-78
2021/03/29 01:05:16;;;;;;;8.07;2.70;;;8.40;89.90;;;;;;4772588;29;20404;-77
2021/03/29 01:07:46;;;;;;;9.55;2.85;;;8.40;89.90;;;;;;4763202;30;20535;-79
2021/03/29 01:10:13;;;;;;;6.72;1.60;;;8.50;90.00;;;;;;4763736;30;20048;-81
2021/03/29 01:12:46;;;;;;;7.80;1.95;;;8.40;89.90;;;;;;4761234;30;20043;-78
2021/03/29 01:15:16;;;;;;;8.93;2.25;;;8.40;89.90;;;;;;4761371;30;20068;-77
2021/03/29 01:17:45;;;;;;;11.90;3.20;;;8.40;89.90;;;;;;4762318;30;20052;-78
2021/03/29 01:20:23;;;;;;;6.30;2.28;;;8.40;90.00;;;;;;4747781;30;20500;-78
2021/03/29 01:22:55;;;;;;;8.95;2.67;;;8.40;90.00;;;;;;4760141;30;20056;-78
2021/03/29 01:25:23;;;;;;;8.73;3.08;;;8.40;89.90;;;;;;4748693;30;20058;-78
2021/03/29 01:27:58;;;;;;;7.07;3.20;;;8.40;90.00;;;;;;4761749;30;20055;-77
2021/03/29 01:30:27;;;;;;;11.80;3.05;;;8.40;90.00;;;;;;4763309;30;20048;-81
2021/03/29 01:32:54;;;;;;;9.48;2.70;;;8.40;90.10;;;;;;4762208;30;20047;-81
2021/03/29 01:35:24;;;;;;;8.68;2.63;;;8.40;90.20;;;;;;4753890;30;20044;-81
2021/03/29 01:37:51;;;;;;;9.13;3.03;;;8.40;90.10;;;;;;4764352;30;20475;-81
2021/03/29 01:40:20;;;;;;;9.80;3.30;;;8.40;90.20;;;;;;4753628;30;20054;-82
2021/03/29 01:42:49;;;;;;;9.68;2.65;;;8.40;90.20;;;;;;4775029;30;20504;-81
2021/03/29 01:45:18;;;;;;;9.57;2.85;;;8.50;90.10;;;;;;4745984;30;20825;-82
2021/03/29 01:47:46;;;;;;;8.95;2.63;;;8.50;90.10;;;;;;4763087;30;20052;-81
2021/03/29 01:50:19;;;;;;;14.23;3.42;;;8.50;90.10;;;;;;4763827;30;20051;-81
2021/03/29 01:52:46;;;;;;;;;;;8.60;90.10;;;;;;4763529;30;20039;-81
2021/03/29 01:55:13;;;;;;;10.95;2.67;;;8.60;90.10;;;;;;4748105;30;19921;-82
2021/03/29 01:57:39;;;;;;;11.20;2.75;;;8.70;90.00;;;;;;4763901;30;20048;-81
2021/03/29 02:00:12;;;;;;;9.30;2.15;;;8.70;90.00;;;;;;4762334;30;20060;-81
2021/03/29 02:02:42;;;;;;;12.25;3.22;;;8.70;89.90;;;;;;4761659;30;20035;-81
2021/03/29 02:05:13;;;;;;;11.60;2.90;;;8.70;89.90;;;;;;4762707;30;20040;-81
2021/03/29 02:07:41;;;;;;;15.10;3.83;;;8.80;89.70;;;;;;4763329;30;20068;-81
2021/03/29 02:10:20;;;;;;;7.55;2.15;;;8.80;89.60;;;;;;4762333;30;20533;-81
2021/03/29 02:12:48;;;;;;;9.35;2.50;;;8.80;89.40;;;;;;4761013;30;20523;-81
2021/03/29 02:15:19;;;;;;;9.35;2.60;;;8.80;89.90;;;;;;4763454;30;20047;-81
2021/03/29 02:17:49;;;;;;;13.52;2.92;;;8.80;89.20;;;;;;4761320;30;20090;-81
2021/03/29 02:20:17;;;;;;;7.18;1.67;;;8.90;89.20;;;;;;4760970;30;20056;-81
2021/03/29 02:22:49;;;;;;;11.73;2.90;;;8.90;89.20;;;;;;4762274;30;20046;-81
2021/03/29 02:25:17;;;;;;;12.60;2.42;;;8.90;89.10;;;;;;4753193;30;20042;-81
2021/03/29 02:27:48;;;;;;;11.75;3.00;;;8.80;89.00;;;;;;4763912;30;20051;-81
2021/03/29 02:30:23;;;;;;;10.02;2.42;;;8.90;89.10;;;;;;4757753;30;20040;-81
2021/03/29 02:32:50;;;;;;;12.85;2.97;;;8.90;89.00;;;;;;4762192;30;20615;-82
2021/03/29 02:35:20;;;;;;;8.40;1.80;;;8.90;89.00;;;;;;4766570;29;20508;-82
2021/03/29 02:37:49;;;;;;;10.93;2.70;;;8.80;89.00;;;;;;4766293;30;20047;-82
2021/03/29 02:40:17;;;;;;;9.30;2.13;;;8.80;88.90;;;;;;4770135;30;20048;-81
2021/03/29 02:42:46;;;;;;;11.10;2.65;;;8.80;89.00;;;;;;4778278;30;20056;-81
2021/03/29 02:45:15;;;;;;;15.70;3.17;;;8.80;89.00;;;;;;4764525;30;20124;-79
2021/03/29 02:47:42;;;;;;;11.20;3.67;;;8.80;89.00;;;;;;4763647;30;20047;-78
2021/03/29 02:50:12;;;;;;;11.35;3.10;;;8.80;89.00;;;;;;4764723;30;20047;-78
2021/03/29 02:52:43;;;;;;;9.55;2.92;;;8.80;88.90;;;;;;4764438;30;20035;-78
2021/03/29 02:55:13;;;;;;;10.65;3.15;;;8.80;88.90;;;;;;4765985;30;20044;-81
2021/03/29 02:57:45;;;;;;;12.32;2.80;;;8.80;89.00;;;;;;4766522;30;20066;-81
2021/03/29 03:00:18;;;;;;;8.80;2.33;;;8.70;89.00;;;;;;4766662;29;20054;-81
2021/03/29 03:02:46;;;;;;;9.75;2.92;;;8.70;88.90;;;;;;4766292;30;20594;-80
2021/03/29 03:05:14;;;;;;;10.02;2.63;;;8.70;89.00;;;;;;4755262;30;20400;-81
2021/03/29 03:07:41;;;;;;;12.30;2.38;;;8.70;89.10;;;;;;4755546;30;20067;-80
2021/03/29 03:10:12;;;;;;;11.27;3.08;;;8.60;89.10;;;;;;4782029;30;20059;-80
2021/03/29 03:12:47;;;;;;;12.73;3.60;;;8.60;89.20;;;;;;4767520;29;20063;-80
2021/03/29 03:15:33;;;;;;;8.30;2.70;;;8.60;89.20;;;;;;4765182;30;20086;-80
2021/03/29 03:18:03;;;;;;;12.18;3.42;;;8.60;89.30;;;;;;4752911;30;20059;-81
2021/03/29 03:20:31;;;;;;;16.52;4.40;;;8.60;89.50;;;;;;4766099;30;20055;-81
2021/03/29 03:23:04;;;;;;;13.77;4.07;;;8.60;89.40;;;;;;4764998;30;20053;-81
2021/03/29 03:25:35;;;;;;;12.27;3.30;;;8.60;89.40;;;;;;4764528;30;20417;-81
2021/03/29 03:28:08;;;;;;;12.18;3.60;;;8.60;89.40;;;;;;4756440;30;20047;-81
2021/03/29 03:30:36;;;;;;;9.77;3.33;;;8.50;89.40;;;;;;4765634;30;20488;-82
2021/03/29 03:33:05;;;;;;;15.50;3.95;;;8.50;89.40;;;;;;4764759;29;20511;-81
2021/03/29 03:35:34;;;;;;;16.60;5.05;;;8.50;89.50;;;;;;4755999;30;20076;-81
2021/03/29 03:38:21;;;;;;;17.08;4.50;;;8.40;89.60;;;;;;4763515;30;20518;-81
2021/03/29 03:40:55;;;;;;;17.75;5.50;;;8.40;89.70;;;;;;4763902;30;20044;-81
2021/03/29 03:43:25;;;;;;;17.55;5.80;;;8.40;89.60;;;;;;4764146;30;20047;-80
2021/03/29 03:46:07;;;;;;;13.27;5.53;;;8.30;89.80;;;;;;4771906;30;20515;-81
2021/03/29 03:48:34;;;;;;;14.95;6.40;;;8.30;89.80;;;;;;4765049;30;20051;-81
2021/03/29 03:51:02;;;;;;;13.40;6.32;;;8.30;89.80;;;;;;4765306;30;20496;-81
2021/03/29 03:53:29;;;;;;;14.10;6.20;;;8.30;90.00;;;;;;4762968;30;20084;-81
2021/03/29 03:55:58;;;;;;;13.13;5.50;;;8.30;90.00;;;;;;4763796;30;20071;-80
2021/03/29 03:58:26;;;;;;;17.77;6.30;;;8.30;90.00;;;;;;4763866;30;20048;-81
2021/03/29 04:00:55;;;;;;;17.77;7.20;;;8.30;90.00;;;;;;4777298;30;20048;-81
2021/03/29 04:03:27;;;;;;;13.45;5.57;;;8.20;90.00;;;;;;4740115;30;20040;-81
2021/03/29 04:05:54;;;;;;;14.98;5.57;;;8.30;90.10;;;;;;4763180;30;20047;-81
2021/03/29 04:08:21;;;;;;;12.82;4.63;;;8.30;90.10;;;;;;4763742;30;20063;-81
2021/03/29 04:10:51;;;;;;;13.07;4.85;;;8.30;90.00;;;;;;4761730;30;20051;-81
2021/03/29 04:15:57;;;;;;;12.20;4.43;;;8.30;90.10;;;;;;4765092;30;20058;-81
2021/03/29 04:18:25;;;;;;;11.43;4.15;;;8.30;90.10;;;;;;4763257;30;20048;-81
2021/03/29 04:20:53;;;;;;;16.00;4.95;;;8.30;90.00;;;;;;4764380;30;20052;-80
2021/03/29 04:23:22;;;;;;;12.43;4.40;;;8.30;90.10;;;;;;4762449;30;20036;-80
2021/03/29 04:25:49;;;;;;;9.55;4.00;;;8.30;90.10;;;;;;4748616;30;20051;-81
2021/03/29 04:28:16;;;;;;;8.27;3.88;;;8.30;90.30;;;;;;4764375;30;20035;-80
2021/03/29 04:30:45;;;;;;;7.85;2.72;;;8.40;90.10;;;;;;4761574;30;20706;-81
2021/03/29 04:33:12;;;;;;;7.22;3.38;;;8.40;90.10;;;;;;4733843;30;20048;-78
2021/03/29 04:35:38;;;;;;;9.65;2.83;;;8.40;90.10;;;;;;4747951;30;20052;-82
2021/03/29 04:38:05;;;;;;;9.30;3.38;;;8.40;90.10;;;;;;4746229;30;20394;-82
2021/03/29 04:40:32;;;;;;;9.10;3.42;;;8.40;90.00;;;;;;4763452;29;20052;-83
2021/03/29 04:42:58;;;;;;;12.93;2.65;;;8.40;90.00;;;;;;4745518;30;20129;-82
2021/03/29 04:45:25;;;;;;;9.73;3.58;;;8.30;90.00;;;;;;4761270;30;20050;-84
2021/03/29 04:47:52;;;;;;;12.80;5.05;;;8.30;90.10;;;;;;4747825;30;20043;-84
2021/03/29 04:50:21;;;;;;;15.23;6.13;;;8.30;90.20;;;;;;4760712;30;20077;-83
2021/03/29 04:52:48;;;;;;;14.70;7.07;;;8.40;90.20;;;;;;4759942;30;20416;-83
2021/03/29 04:55:16;;;;;;;16.90;6.07;;;8.40;90.20;;;;;;4745684;30;20492;-84
2021/03/29 04:57:43;;;;;;;10.13;4.25;;;8.40;90.10;;;;;;4763071;30;20059;-82
2021/03/29 05:00:11;;;;;;;11.00;4.00;;;8.40;90.10;;;;;;4763273;30;20945;-81
2021/03/29 05:02:37;;;;;;;23.08;12.75;;;8.40;90.10;;;;;;4760904;30;20039;-84
2021/03/29 05:05:06;;;;;;;12.82;5.20;;;8.40;90.40;;;;;;4753264;30;20040;-83
2021/03/29 05:07:33;;;;;;;8.43;3.10;;;8.30;90.10;;;;;;4763647;30;20047;-79
2021/03/29 05:10:01;;;;;;;7.15;2.53;;;8.30;90.10;;;;;;4762580;30;20055;-77
2021/03/29 05:12:28;;;;;;;12.88;2.78;;;8.30;90.10;;;;;;4762009;30;20043;-80
2021/03/29 05:14:54;;;;;;;9.27;2.45;;;8.30;90.20;;;;;;4762563;30;20051;-80
2021/03/29 05:17:21;;;;;;;9.68;1.90;;;8.30;90.20;;;;;;4753420;30;20045;-78
2021/03/29 05:19:48;;;;;;;10.52;2.58;;;8.30;90.30;;;;;;4739919;30;20385;-81
2021/03/29 05:22:15;;;;;;;9.38;2.30;;;8.20;90.30;;;;;;4762639;30;20051;-81
2021/03/29 05:24:41;;;;;;;6.85;1.83;;;8.20;90.30;;;;;;4762394;30;20059;-82
2021/03/29 05:27:08;;;;;;;6.35;2.15;;;8.20;90.30;;;;;;4756480;30;20044;-81
2021/03/29 05:29:42;;;;;;;6.72;2.10;;;8.20;90.40;;;;;;4763636;30;20039;-81
2021/03/29 05:32:18;;;;;;;7.25;2.00;;;8.20;90.40;;;;;;4763044;30;20051;-82
2021/03/29 05:34:47;;;;;;;10.55;2.53;;;8.20;90.50;;;;;;4748004;30;20895;-81
2021/03/29 05:37:15;;;;;;;7.38;2.38;;;8.20;90.80;;;;;;4764057;30;20918;-81
2021/03/29 05:39:45;;;;;;;6.85;2.38;;;8.20;90.50;;;;;;4747985;30;20408;-81
2021/03/29 05:42:11;;;;;;;7.43;2.03;;;8.30;90.50;;;;;;4746999;30;20050;-81
2021/03/29 05:44:38;;;;;;;8.80;1.60;;;8.30;90.50;;;;;;4747484;30;20054;-81
2021/03/29 05:47:05;;;;;;;10.30;2.47;;;8.40;90.70;;;;;;4762375;30;20102;-81
2021/03/29 05:49:33;;;;;;;7.60;2.42;;;8.40;90.50;;;;;;4747358;30;20044;-81
2021/03/29 05:52:00;;;;;;;7.45;1.60;;;8.40;90.40;;;;;;4763008;30;20500;-82
2021/03/29 05:54:27;;;;;;;9.13;2.20;;;8.50;90.40;;;;;;4762017;30;20040;-81
2021/03/29 05:56:54;;;;;;;12.68;3.13;;;8.60;90.40;;;;;;4746160;30;20048;-81
2021/03/29 05:59:34;;;;;;;9.88;2.97;;;8.60;90.40;;;;;;4762006;30;20424;-81
2021/03/29 06:02:01;;;;;;;10.57;2.50;;;8.70;90.30;;;;;;4762325;30;20079;-81
2021/03/29 06:04:47;;;;;;;8.68;2.10;;;8.80;90.20;;;;;;4780182;30;20044;-81
2021/03/29 06:07:31;;;;;;;8.27;1.98;;;8.90;90.10;;;;;;4767679;29;20052;-81
2021/03/29 06:10:09;;;;;;;7.43;1.48;;;9.10;90.00;;;;;;4749163;30;20060;-81
2021/03/29 06:12:44;;;;;;;10.13;2.15;;;9.20;89.60;;;;;;4741556;30;20483;-81
2021/03/29 06:15:12;;;;;;;12.20;2.78;;;9.30;89.30;;;;;;4780402;30;20036;-81
2021/03/29 06:17:39;;;;;;;9.48;1.92;;;9.50;89.00;;;;;;4757770;30;20891;-81
2021/03/29 06:20:07;;;;;;;8.68;2.58;;;9.60;88.60;;;;;;4767020;30;20404;-82
2021/03/29 06:22:40;;;;;;;10.05;2.85;;;9.70;88.20;;;;;;4765447;30;20051;-81
2021/03/29 06:25:18;;;;;;;9.85;2.20;;;9.70;87.90;;;;;;4765701;30;20039;-82
2021/03/29 06:27:58;;;;;;;9.80;2.20;;;9.80;87.70;;;;;;4750449;30;20048;-82
2021/03/29 06:30:31;;;;;;;9.77;2.33;;;9.80;87.50;;;;;;4750594;30;20063;-82
2021/03/29 06:33:00;;;;;;;11.57;1.90;;;9.80;87.40;;;;;;4765393;29;20063;-82
2021/03/29 06:35:43;;;;;;;9.73;2.00;;;9.80;87.40;;;;;;4765677;30;20052;-82
2021/03/29 06:38:15;;;;;;;6.90;2.10;;;9.80;87.40;;;;;;4764091;30;20059;-82
2021/03/29 06:41:01;;;;;;;;;;;9.80;87.30;;;;;;4765813;30;20048;-82
2021/03/29 06:43:31;;;;;;;11.38;2.80;;;9.80;87.30;;;;;;4749012;30;19918;-82
2021/03/29 06:46:07;;;;;;;8.82;2.20;;;9.80;87.30;;;;;;4764251;30;20063;-82
2021/03/29 06:48:36;;;;;;;8.10;1.92;;;9.80;87.30;;;;;;4774068;30;20064;-82
2021/03/29 06:51:15;;;;;;;9.70;2.30;;;9.70;87.20;;;;;;4780128;30;20048;-82
2021/03/29 06:53:46;;;;;;;8.00;2.60;;;9.70;87.40;;;;;;4766013;30;20047;-82
2021/03/29 06:56:33;;;;;;;8.60;2.08;;;9.70;87.40;;;;;;4779877;30;20074;-82
2021/03/29 06:59:02;;;;;;;5.35;2.28;;;9.80;87.50;;;;;;4779969;30;20044;-82
2021/03/29 07:01:30;;;;;;;5.68;2.10;;;9.80;87.50;;;;;;4742789;30;20043;-82
2021/03/29 07:03:56;;;;;;;12.30;2.58;;;9.80;87.50;;;;;;4766921;30;20043;-82
2021/03/29 07:06:25;;;;;;;6.45;2.05;;;9.80;87.50;;;;;;4752721;30;20044;-83
2021/03/29 07:08:52;;;;;;;9.73;2.75;;;9.80;87.40;;;;;;4780381;29;20071;-82
2021/03/29 07:11:20;;;;;;;7.43;2.30;;;10.00;87.20;;;;;;4737300;30;20056;-82
2021/03/29 07:13:48;;;;;;;9.10;2.08;;;10.10;87.10;;;;;;4739587;30;20044;-82
2021/03/29 07:16:19;;;;;;;12.80;2.80;;;10.10;86.80;;;;;;4772629;30;20046;-77
2021/03/29 07:18:47;;;;;;;11.27;2.63;;;10.20;86.70;;;;;;4751255;30;20055;-78
2021/03/29 07:21:16;;;;;;;9.38;2.30;;;10.30;86.50;;;;;;4763670;30;20051;-78
2021/03/29 07:23:43;;;;;;;6.38;1.65;;;10.50;86.40;;;;;;4763523;30;20925;-78
2021/03/29 07:26:33;;;;;;;10.82;2.50;;;10.60;86.00;;;;;;4777652;30;20040;-78
2021/03/29 07:29:15;;;;;;;10.07;2.20;;;10.80;85.50;;;;;;4764354;30;20052;-78
2021/03/29 07:31:42;;;;;;;12.65;2.20;;;11.00;85.00;;;;;;4747077;30;20069;-78
2021/03/29 07:34:12;;;;;;;8.43;2.22;;;11.10;84.50;;;;;;4776528;30;20039;-78
2021/03/29 07:36:45;;;;;;;12.73;2.25;;;11.30;83.90;;;;;;4762388;30;20118;-78
2021/03/29 07:39:13;;;;;;;10.90;2.45;;;11.40;83.50;;;;;;4763689;30;20063;-77
2021/03/29 07:41:40;;;;;;;12.10;2.50;;;11.60;83.00;;;;;;4762661;30;20067;-78
2021/03/29 07:44:18;;;;;;;8.23;1.80;;;11.70;82.40;;;;;;4762148;30;20047;-78
2021/03/29 07:46:47;;;;;;;9.27;2.55;;;11.80;82.30;;;;;;4762498;30;20035;-78
2021/03/29 07:49:42;;;;;;;10.20;2.33;;;11.90;81.80;;;;;;4747758;30;20055;-78
2021/03/29 07:52:38;;;;;;;8.48;2.10;;;12.10;81.50;;;;;;4761049;30;20055;-78
2021/03/29 07:55:16;;;;;;;13.10;2.55;;;12.40;80.80;;;;;;4760409;30;20043;-78
2021/03/29 07:57:49;;;;;;;11.63;2.83;;;12.60;79.40;;;;;;4761575;30;20400;-78
2021/03/29 08:00:28;;;;;;;9.20;2.00;;;12.70;78.80;;;;;;4775583;30;20040;-78
2021/03/29 08:02:58;;;;;;;10.00;2.17;;;12.70;78.60;;;;;;4760111;30;20579;-76
2021/03/29 08:05:41;;;;;;;12.80;2.05;;;12.70;78.50;;;;;;4750585;30;20051;-81
2021/03/29 08:08:26;;;;;;;13.52;2.97;;;12.70;78.60;;;;;;4749310;30;20115;-80
2021/03/29 08:11:22;;;;;;;10.00;2.55;;;12.80;78.50;;;;;;4752184;30;20058;-80
2021/03/29 08:13:52;;;;;;;9.05;2.58;;;12.80;78.40;;;;;;4748501;30;20039;-80
2021/03/29 08:16:22;;;;;;;10.43;2.60;;;12.90;78.30;;;;;;4771161;30;20040;-80
2021/03/29 08:19:07;;;;;;;7.97;2.58;;;13.00;78.30;;;;;;4761531;30;20039;-78
2021/03/29 08:21:54;;;;;;;9.70;2.42;;;13.10;78.00;;;;;;4761703;30;20070;-79
2021/03/29 08:24:23;;;;;;;14.32;2.72;;;13.20;77.80;;;;;;4745828;30;20043;-79
2021/03/29 08:26:53;;;;;;;12.15;2.20;;;13.20;77.60;;;;;;4775897;30;20044;-77
2021/03/29 08:29:29;;;;;;;11.38;2.92;;;13.30;77.60;;;;;;4760619;30;20050;-77
2021/03/29 08:32:17;;;;;;;8.45;3.08;;;13.40;76.80;;;;;;4760119;30;20051;-78
2021/03/29 08:34:59;;;;;;;8.98;2.15;;;13.40;77.10;;;;;;4762935;29;20047;-79
2021/03/29 08:37:41;;;;;;;10.20;2.50;;;13.50;76.70;;;;;;4758589;30;20042;-79
2021/03/29 08:40:21;;;;;;;13.10;2.97;;;13.60;76.50;;;;;;4734674;30;20055;-78
2021/03/29 08:42:54;;;;;;;8.52;2.67;;;13.70;76.10;;;;;;4760039;30;20752;-79
2021/03/29 08:45:25;;;;;;;6.65;2.15;;;13.70;76.00;;;;;;4777564;29;20044;-79
2021/03/29 08:47:58;;;;;;;7.93;2.22;;;13.80;75.80;;;;;;4763522;30;20047;-79
2021/03/29 08:50:32;;;;;;;12.27;2.58;;;13.90;75.50;;;;;;4762934;30;20039;-79
2021/03/29 08:53:00;;;;;;;8.48;2.05;;;14.00;75.20;;;;;;4774062;30;20050;-81
2021/03/29 08:55:29;;;;;;;9.30;2.00;;;14.10;75.10;;;;;;4747610;30;20509;-79
2021/03/29 08:57:56;;;;;;;13.18;2.55;;;14.20;74.70;;;;;;4762349;30;20052;-79
2021/03/29 09:00:26;;;;;;;7.38;2.60;;;14.30;74.20;;;;;;4761953;30;20040;-80
2021/03/29 09:02:53;;;;;;;7.55;2.03;;;14.40;73.90;;;;;;4746958;30;20582;-80
2021/03/29 09:05:21;;;;;;;9.50;2.50;;;14.50;74.00;;;;;;4777251;30;20028;-81
2021/03/29 09:07:51;;;;;;;10.45;2.28;;;14.60;73.70;;;;;;4775357;30;20821;-80
2021/03/29 09:10:35;;;;;;;8.75;2.22;;;14.70;73.20;;;;;;4761657;30;20492;-80
2021/03/29 09:13:07;;;;;;;12.57;2.63;;;14.80;72.60;;;;;;4762432;30;20040;-81
2021/03/29 09:15:36;;;;;;;12.85;4.20;;;14.90;72.40;;;;;;4763448;30;20036;-81
2021/03/29 09:18:09;;;;;;;9.90;2.47;;;15.00;71.80;;;;;;4747738;30;20051;-81
2021/03/29 09:20:47;;;;;;;11.60;1.83;;;15.10;71.50;;;;;;4750571;30;20047;-81
2021/03/29 09:23:17;;;;;;;13.15;2.17;;;15.30;71.20;;;;;;4745854;30;20056;-81
2021/03/29 09:25:46;;;;;;;5.57;1.55;;;15.40;70.50;;;;;;4761606;30;20055;-79
2021/03/29 09:31:01;;;;;;;11.02;3.15;;;15.60;69.70;;;;;;4762636;30;20059;-82
2021/03/29 09:33:28;;;;;;;8.55;3.03;;;15.70;68.40;;;;;;4762688;30;20055;-81
2021/03/29 09:35:55;;;;;;;6.65;1.58;;;15.80;68.60;;;;;;4747226;30;20408;-83
2021/03/29 09:38:35;;;;;;;7.90;2.05;;;15.90;68.20;;;;;;4766823;30;20063;-85
2021/03/29 09:41:22;;;;;;;9.00;1.98;;;16.10;67.50;;;;;;4779620;30;20048;-85
2021/03/29 09:43:52;;;;;;;8.20;2.00;;;16.20;66.50;;;;;;4773178;30;20062;-84
2021/03/29 09:46:27;;;;;;;8.50;1.63;;;16.30;65.20;;;;;;4766524;30;20047;-84
2021/03/29 09:49:23;;;;;;;7.20;1.95;;;16.30;65.20;;;;;;4766305;30;20048;-84
2021/03/29 09:51:52;;;;;;;9.73;1.98;;;16.40;64.20;;;;;;4743669;30;20452;-85
2021/03/29 09:54:31;;;;;;;8.68;2.50;;;16.50;63.80;;;;;;4764486;30;20496;-84
2021/03/29 09:57:21;;;;;;;8.68;1.77;;;16.60;63.40;;;;;;4750853;30;20052;-84
2021/03/29 09:59:52;;;;;;;6.70;1.63;;;16.60;62.40;;;;;;4765973;30;20047;-85
2021/03/29 10:02:28;;;;;;;7.90;2.47;;;16.70;61.80;;;;;;4764404;30;20047;-85
2021/03/29 10:05:02;;;;;;;7.60;2.08;;;16.80;61.30;;;;;;4749696;30;20048;-85
2021/03/29 10:07:29;;;;;;;7.90;1.77;;;16.80;61.10;;;;;;4764898;30;20039;-85
2021/03/29 10:10:02;;;;;;;6.97;1.63;;;16.90;61.20;;;;;;4763128;30;20504;-79
2021/03/29 10:12:29;;;;;;;7.70;1.77;;;17.10;61.10;;;;;;4776455;30;20059;-79
2021/03/29 10:15:07;;;;;;;6.78;1.50;;;17.20;60.80;;;;;;4749925;30;20055;-79
2021/03/29 10:17:33;;;;;;;8.90;1.63;;;17.30;60.60;;;;;;4778080;29;20071;-79
2021/03/29 10:20:12;;;;;;;12.13;2.38;;;17.50;59.80;;;;;;4763355;30;20056;-79
2021/03/29 10:22:39;;;;;;;8.75;1.58;;;17.70;59.60;;;;;;4763104;30;20043;-79
2021/03/29 10:25:16;;;;;;;5.82;1.45;;;17.90;59.10;;;;;;4748961;30;20059;-79
2021/03/29 10:27:54;;;;;;;5.97;1.98;;;18.10;58.20;;;;;;4764428;30;20043;-79
2021/03/29 10:30:27;;;;;;;6.22;1.90;;;18.30;57.60;;;;;;4764446;30;20396;-79
2021/03/29 10:32:57;;;;;;;8.40;1.80;;;18.50;57.10;;;;;;4762153;30;20039;-79
2021/03/29 10:35:27;;;;;;;5.85;2.03;;;18.70;56.50;;;;;;4735575;30;20091;-84
2021/03/29 10:37:57;;;;;;;8.02;2.42;;;19.00;55.50;;;;;;4780130;30;20039;-85
2021/03/29 10:40:24;;;;;;;5.32;1.80;;;19.20;53.40;;;;;;4779322;30;20069;-86
2021/03/29 10:42:50;;;;;;;9.57;1.85;;;19.30;53.50;;;;;;4763659;30;20039;-87
2021/03/29 10:45:18;;;;;;;10.52;2.47;;;19.50;52.90;;;;;;4750593;30;20039;-85
2021/03/29 10:47:45;;;;;;;8.35;2.15;;;19.80;52.20;;;;;;4764653;30;20055;-85
2021/03/29 10:50:15;;;;;;;6.43;1.83;;;20.10;50.20;;;;;;4765050;30;20067;-86
2021/03/29 10:52:42;;;;;;;6.43;1.83;;;20.10;49.40;;;;;;4748719;30;20043;-86
2021/03/29 10:55:10;;;;;;;6.40;1.60;;;20.30;49.70;;;;;;4763333;30;20059;-85
2021/03/29 10:57:36;;;;;;;4.80;1.70;;;20.50;49.50;;;;;;4776648;30;20048;-86
2021/03/29 11:00:06;;;;;;;7.60;2.17;;;20.80;48.40;;;;;;4764833;30;20048;-85
2021/03/29 11:02:32;;;;;;;7.00;2.08;;;21.10;48.10;;;;;;4780166;30;20067;-86
2021/03/29 11:04:59;;;;;;;8.07;2.10;;;21.30;47.50;;;;;;4749296;30;20040;-86
2021/03/29 11:07:25;;;;;;;7.32;1.70;;;21.60;46.80;;;;;;4765052;30;20512;-86
2021/03/29 11:09:52;;;;;;;8.05;1.60;;;21.90;46.60;;;;;;4764525;30;20086;-79
2021/03/29 11:12:20;;;;;;;6.32;1.75;;;22.20;46.80;;;;;;4761830;30;20055;-79
2021/03/29 11:14:47;;;;;;;10.07;2.53;;;22.50;46.40;;;;;;4752700;30;20055;-86
2021/03/29 11:17:14;;;;;;;4.57;1.52;;;22.90;44.90;;;;;;4768223;30;20050;-85
2021/03/29 11:19:40;;;;;;;7.95;1.85;;;23.10;44.70;;;;;;4755461;30;20555;-85
2021/03/29 11:22:07;;;;;;;7.32;1.98;;;23.40;43.50;;;;;;4780431;30;20052;-85
2021/03/29 11:24:34;;;;;;;5.95;2.08;;;23.50;42.50;;;;;;4757290;30;20067;-86
2021/03/29 11:27:00;;;;;;;7.95;2.15;;;23.70;41.80;;;;;;4767781;30;20055;-86
2021/03/29 11:29:27;;;;;;;7.72;2.03;;;23.80;40.70;;;;;;4761000;30;20051;-84
2021/03/29 11:31:53;;;;;;;6.50;1.70;;;23.90;41.20;;;;;;4748875;30;20051;-87
2021/03/29 11:34:20;;;;;;;7.63;1.80;;;24.00;39.90;;;;;;4750307;30;20074;-83
2021/03/29 11:36:46;;;;;;;6.05;1.70;;;24.10;40.00;;;;;;4760602;30;20059;-86
2021/03/29 11:39:13;;;;;;;5.40;1.80;;;24.30;38.70;;;;;;4746540;30;20071;-87
2021/03/29 11:41:40;;;;;;;7.00;2.25;;;24.40;38.10;;;;;;4733296;30;20055;-87
2021/03/29 11:44:07;;;;;;;7.88;2.00;;;24.50;37.90;;;;;;4734754;30;20072;-87
2021/03/29 11:46:34;;;;;;;8.88;2.13;;;24.70;38.20;;;;;;4763792;30;20044;-86
2021/03/29 11:49:00;;;;;;;6.03;1.88;;;25.00;37.50;;;;;;4749242;30;20051;-86
2021/03/29 11:51:27;;;;;;;6.55;1.70;;;25.20;37.00;;;;;;4762586;30;20508;-87
2021/03/29 11:53:54;;;;;;;6.15;1.92;;;25.40;36.30;;;;;;4778670;29;20044;-86
2021/03/29 11:56:21;;;;;;;3.95;1.23;;;25.70;36.30;;;;;;4757646;30;20044;-86
2021/03/29 11:58:50;;;;;;;6.47;2.42;;;26.00;35.70;;;;;;4763903;30;20520;-87
2021/03/29 12:01:47;;;;;;;5.35;1.60;;;26.20;33.70;;;;;;4762862;30;20067;-86
2021/03/29 12:04:25;;;;;;;6.57;1.77;;;26.30;34.10;;;;;;4764214;30;20444;-86
2021/03/29 12:06:59;;;;;;;5.90;1.30;;;26.40;33.30;;;;;;4748911;30;20036;-86
2021/03/29 12:09:34;;;;;;;9.70;2.40;;;26.60;33.40;;;;;;4765590;30;20055;-87
2021/03/29 12:12:07;;;;;;;6.85;2.38;;;27.00;33.40;;;;;;4747459;30;20054;-86
2021/03/29 12:14:37;;;;;;;6.97;1.90;;;27.10;31.20;;;;;;4740463;30;20059;-87
2021/03/29 12:17:07;;;;;;;5.32;2.00;;;27.30;31.90;;;;;;4764027;30;20043;-87
2021/03/29 12:19:37;;;;;;;6.35;2.10;;;27.50;30.70;;;;;;4763495;30;20594;-86
2021/03/29 12:22:16;;;;;;;6.88;2.00;;;27.60;30.00;;;;;;4764364;29;20422;-88
2021/03/29 12:24:46;;;;;;;6.32;1.85;;;27.70;30.50;;;;;;4764662;30;20044;-87
2021/03/29 12:27:13;;;;;;;5.80;1.63;;;27.90;30.60;;;;;;4762807;30;21363;-87
2021/03/29 12:29:43;;;;;;;6.85;1.92;;;28.20;30.50;;;;;;4738563;30;20044;-87
2021/03/29 12:32:18;;;;;;;6.40;2.08;;;28.50;30.70;;;;;;4776343;30;20044;-86
2021/03/29 12:34:50;;;;;;;6.32;2.05;;;28.70;30.30;;;;;;4742697;30;20110;-86
2021/03/29 12:37:19;;;;;;;5.57;1.27;;;29.00;30.50;;;;;;4763776;30;20079;-86
2021/03/29 12:42:17;;;;;;;5.35;1.80;;;29.60;30.10;;;;;;4759966;30;20824;-85
2021/03/29 12:44:44;;;;;;;6.53;1.85;;;29.90;29.30;;;;;;4778169;30;20624;-87
2021/03/29 12:47:11;;;;;;;3.42;1.23;;;29.90;28.30;;;;;;4748845;30;20400;-86
2021/03/29 12:49:38;;;;;;;5.32;1.67;;;29.70;28.10;;;;;;4748250;30;20044;-80
2021/03/29 12:52:14;;;;;;;8.43;1.70;;;29.70;28.20;;;;;;4762216;30;20060;-81
2021/03/29 12:55:06;;;;;;;6.72;1.75;;;29.80;28.30;;;;;;4745994;30;20052;-86
2021/03/29 12:57:59;;;;;;;4.75;1.35;;;29.90;27.90;;;;;;4746406;30;20043;-85
2021/03/29 13:00:48;;;;;;;5.65;1.80;;;29.90;27.50;;;;;;4762704;30;20055;-85
2021/03/29 13:03:17;;;;;;;6.30;1.85;;;30.00;27.30;;;;;;4761032;30;20051;-85
2021/03/29 13:06:01;;;;;;;5.20;1.63;;;30.10;27.00;;;;;;4724431;30;20168;-86
2021/03/29 13:08:50;;;;;;;4.38;1.65;;;30.10;26.70;;;;;;4762819;30;20071;-84
2021/03/29 13:13:47;;;;;;;4.65;1.65;;;30.10;27.10;;;;;;4769661;30;20486;-84
2021/03/29 13:16:14;;;;;;;4.47;1.52;;;30.20;27.30;;;;;;4763965;30;20044;-84
2021/03/29 13:18:41;;;;;;;6.22;1.80;;;30.40;27.10;;;;;;4762099;30;20050;-79
2021/03/29 13:21:07;;;;;;;6.68;1.50;;;30.50;26.80;;;;;;4761030;30;20043;-78